createdAt,value
2022-08-25T00:00:30.258Z,56.06
2022-08-25T00:02:04.718Z,56.03
2022-08-25T00:03:39.500Z,56.17
2022-08-25T00:05:11.725Z,56.00
2022-08-25T00:06:44.046Z,55.95
2022-08-25T00:08:16.473Z,55.75
2022-08-25T00:09:48.489Z,55.80
2022-08-25T00:11:21.504Z,55.89
2022-08-25T00:12:53.445Z,55.88
2022-08-25T00:14:28.925Z,55.92
2022-08-25T00:16:00.810Z,56.08
2022-08-25T00:17:33.121Z,56.20
2022-08-25T00:19:06.003Z,56.29
2022-08-25T00:20:37.628Z,56.39
2022-08-25T00:22:14.886Z,56.31
2022-08-25T00:23:46.896Z,56.40
2022-08-25T00:25:18.785Z,56.27
2022-08-25T00:26:51.067Z,56.43
2022-08-25T00:28:23.569Z,56.35
2022-08-25T00:29:55.212Z,56.33
2022-08-25T00:31:37.741Z,56.11
2022-08-25T00:33:10.748Z,55.88
2022-08-25T00:34:42.621Z,55.97
2022-08-25T00:36:14.743Z,55.97
2022-08-25T00:37:46.340Z,56.06
2022-08-25T00:39:18.913Z,56.28
2022-08-25T00:41:06.113Z,56.26
2022-08-25T00:42:38.719Z,56.14
2022-08-25T00:44:11.196Z,56.33
2022-08-25T00:45:42.967Z,56.32
2022-08-25T00:47:14.614Z,56.44
2022-08-25T00:48:47.633Z,56.34
2022-08-25T00:50:19.406Z,56.48
2022-08-25T00:51:53.850Z,56.64
2022-08-25T00:53:25.741Z,56.71
2022-08-25T00:55:08.107Z,56.95
2022-08-25T00:56:40.052Z,57.13
2022-08-25T00:58:14.353Z,57.04
2022-08-25T00:59:46.202Z,56.89
2022-08-25T01:01:18.346Z,56.82
2022-08-25T01:02:50.814Z,56.97
2022-08-25T01:04:22.382Z,57.02
2022-08-25T01:05:54.130Z,57.23
2022-08-25T01:07:26.265Z,57.17
2022-08-25T01:08:58.084Z,57.04
2022-08-25T01:10:30.410Z,57.14
2022-08-25T01:12:02.198Z,57.18
2022-08-25T01:13:35.614Z,57.19
2022-08-25T01:15:08.226Z,57.29
2022-08-25T01:16:39.852Z,57.36
2022-08-25T01:18:12.425Z,57.40
2022-08-25T01:19:44.530Z,57.36
2022-08-25T01:21:16.636Z,57.20
2022-08-25T01:22:49.267Z,57.17
2022-08-25T01:24:36.639Z,57.45
2022-08-25T01:26:09.905Z,57.42
2022-08-25T01:27:41.672Z,57.19
2022-08-25T01:29:22.331Z,57.36
2022-08-25T01:30:54.354Z,57.40
2022-08-25T01:32:27.588Z,57.34
2022-08-25T01:33:59.318Z,57.52
2022-08-25T01:35:31.306Z,57.58
2022-08-25T01:37:03.044Z,57.71
2022-08-25T01:38:34.942Z,57.64
2022-08-25T01:40:06.919Z,57.57
2022-08-25T01:41:41.512Z,57.44
2022-08-25T01:43:13.294Z,57.44
2022-08-25T01:44:45.444Z,57.50
2022-08-25T01:46:17.167Z,57.48
2022-08-25T01:47:48.777Z,57.53
2022-08-25T01:49:20.938Z,57.56
2022-08-25T01:50:52.532Z,57.66
2022-08-25T01:52:25.941Z,57.75
2022-08-25T01:53:57.537Z,57.82
2022-08-25T01:55:29.710Z,57.96
2022-08-25T01:57:01.872Z,57.91
2022-08-25T01:58:34.573Z,58.19
2022-08-25T02:00:07.380Z,58.04
2022-08-25T02:01:39.275Z,58.16
2022-08-25T02:03:15.852Z,58.36
2022-08-25T02:04:50.782Z,58.20
2022-08-25T02:06:28.822Z,58.35
2022-08-25T02:08:02.098Z,58.39
2022-08-25T02:09:33.761Z,58.41
2022-08-25T02:11:05.504Z,58.43
2022-08-25T02:12:37.119Z,58.16
2022-08-25T02:14:09.304Z,58.18
2022-08-25T02:15:42.057Z,58.37
2022-08-25T02:17:13.586Z,58.31
2022-08-25T02:18:45.733Z,58.53
2022-08-25T02:20:17.587Z,58.24
2022-08-25T02:21:49.198Z,58.44
2022-08-25T02:23:20.918Z,58.44
2022-08-25T02:24:52.533Z,58.37
2022-08-25T02:26:24.144Z,58.42
2022-08-25T02:27:55.792Z,58.49
2022-08-25T02:29:27.405Z,58.42
2022-08-25T02:31:01.628Z,58.39
2022-08-25T02:32:34.773Z,58.42
2022-08-25T02:34:06.784Z,58.46
2022-08-25T02:35:39.417Z,58.58
2022-08-25T02:37:11.037Z,58.70
2022-08-25T02:38:42.638Z,58.57
2022-08-25T02:40:14.414Z,58.71
2022-08-25T02:41:46.294Z,58.70
2022-08-25T02:43:17.909Z,58.55
2022-08-25T02:44:49.655Z,58.47
2022-08-25T02:46:22.047Z,58.45
2022-08-25T02:47:54.213Z,58.60
2022-08-25T02:49:25.897Z,58.63
2022-08-25T02:50:59.204Z,58.58
2022-08-25T02:52:31.081Z,58.71
2022-08-25T02:54:03.192Z,58.79
2022-08-25T02:55:36.529Z,58.64
2022-08-25T02:57:08.227Z,58.86
2022-08-25T02:58:40.209Z,58.84
2022-08-25T03:00:12.848Z,58.61
2022-08-25T03:01:44.752Z,58.81
2022-08-25T03:03:16.761Z,58.85
2022-08-25T03:04:48.495Z,58.95
2022-08-25T03:06:22.420Z,58.90
2022-08-25T03:07:54.104Z,58.94
2022-08-25T03:09:27.340Z,58.79
2022-08-25T03:10:58.912Z,58.93
2022-08-25T03:12:31.265Z,58.66
2022-08-25T03:14:03.009Z,58.74
2022-08-25T03:15:38.011Z,58.75
2022-08-25T03:17:10.528Z,58.76
2022-08-25T03:18:42.394Z,58.89
2022-08-25T03:20:14.005Z,59.00
2022-08-25T03:21:46.785Z,59.14
2022-08-25T03:23:18.389Z,59.11
2022-08-25T03:24:50.335Z,58.94
2022-08-25T03:26:40.637Z,58.85
2022-08-25T03:28:12.484Z,59.13
2022-08-25T03:29:44.093Z,59.16
2022-08-25T03:31:15.826Z,58.84
2022-08-25T03:32:47.510Z,58.91
2022-08-25T03:34:19.534Z,59.09
2022-08-25T03:35:51.326Z,59.13
2022-08-25T03:37:22.890Z,59.32
2022-08-25T03:38:54.651Z,59.14
2022-08-25T03:40:26.637Z,59.07
2022-08-25T03:41:58.282Z,59.25
2022-08-25T03:43:29.957Z,59.31
2022-08-25T03:45:05.059Z,59.34
2022-08-25T03:46:44.098Z,59.40
2022-08-25T03:48:15.956Z,59.47
2022-08-25T03:49:48.074Z,59.48
2022-08-25T03:51:20.909Z,59.41
2022-08-25T03:52:54.094Z,59.50
2022-08-25T03:54:25.940Z,59.52
2022-08-25T03:55:57.846Z,59.60
2022-08-25T03:57:29.566Z,59.57
2022-08-25T03:59:01.238Z,59.65
2022-08-25T04:00:32.918Z,59.56
2022-08-25T04:02:05.300Z,59.56
2022-08-25T04:03:36.939Z,59.64
2022-08-25T04:05:09.638Z,59.47
2022-08-25T04:06:41.449Z,59.57
2022-08-25T04:08:13.247Z,59.63
2022-08-25T04:09:45.209Z,59.61
2022-08-25T04:11:20.686Z,59.55
2022-08-25T04:12:52.927Z,59.64
2022-08-25T04:14:24.604Z,59.60
2022-08-25T04:15:56.130Z,59.71
2022-08-25T04:17:28.009Z,59.75
2022-08-25T04:19:00.016Z,59.83
2022-08-25T04:20:31.877Z,59.66
2022-08-25T04:22:03.594Z,59.44
2022-08-25T04:23:35.675Z,59.40
2022-08-25T04:25:07.634Z,59.40
2022-08-25T04:26:42.345Z,59.53
2022-08-25T04:28:14.449Z,59.43
2022-08-25T04:29:47.400Z,59.52
2022-08-25T04:31:19.203Z,59.49
2022-08-25T04:32:51.258Z,59.52
2022-08-25T04:34:30.555Z,59.53
2022-08-25T04:36:03.676Z,59.57
2022-08-25T04:37:35.499Z,59.73
2022-08-25T04:39:07.202Z,59.70
2022-08-25T04:40:38.819Z,59.79
2022-08-25T04:42:10.416Z,59.69
2022-08-25T04:43:42.118Z,59.59
2022-08-25T04:45:13.832Z,59.72
2022-08-25T04:46:45.399Z,59.64
2022-08-25T04:48:17.600Z,59.60
2022-08-25T04:49:49.877Z,59.59
2022-08-25T04:51:23.856Z,59.54
2022-08-25T04:52:55.578Z,59.77
2022-08-25T04:54:28.636Z,59.77
2022-08-25T04:56:08.455Z,59.67
2022-08-25T04:57:40.203Z,59.50
2022-08-25T04:59:12.347Z,59.49
2022-08-25T05:00:44.220Z,59.21
2022-08-25T05:02:16.351Z,59.13
2022-08-25T05:03:48.276Z,59.15
2022-08-25T05:05:19.964Z,59.18
2022-08-25T05:06:51.921Z,59.33
2022-08-25T05:08:24.606Z,59.54
2022-08-25T05:09:56.344Z,59.68
2022-08-25T05:11:28.272Z,59.82
2022-08-25T05:13:00.219Z,59.84
2022-08-25T05:14:32.099Z,59.72
2022-08-25T05:16:04.094Z,59.60
2022-08-25T05:17:35.990Z,59.59
2022-08-25T05:19:08.335Z,59.68
2022-08-25T05:20:40.017Z,59.57
2022-08-25T05:22:12.736Z,59.64
2022-08-25T05:23:44.542Z,59.49
2022-08-25T05:25:16.417Z,59.31
2022-08-25T05:26:48.061Z,59.42
2022-08-25T05:28:20.016Z,59.21
2022-08-25T05:29:51.908Z,58.90
2022-08-25T05:31:24.087Z,59.03
2022-08-25T05:32:55.937Z,59.02
2022-08-25T05:34:28.106Z,59.10
2022-08-25T05:36:00.542Z,59.13
2022-08-25T05:37:32.561Z,59.22
2022-08-25T05:39:04.667Z,59.00
2022-08-25T05:40:36.514Z,58.98
2022-08-25T05:42:08.838Z,58.97
2022-08-25T05:43:41.440Z,59.01
2022-08-25T05:45:20.261Z,59.02
2022-08-25T05:46:53.246Z,59.28
2022-08-25T05:48:25.204Z,59.15
2022-08-25T05:49:56.904Z,59.34
2022-08-25T05:51:30.941Z,59.31
2022-08-25T05:53:02.718Z,59.25
2022-08-25T05:54:34.444Z,59.52
2022-08-25T05:56:06.650Z,59.28
2022-08-25T05:57:41.833Z,59.71
2022-08-25T05:59:13.748Z,59.47
2022-08-25T06:00:45.631Z,59.65
2022-08-25T06:02:36.045Z,59.45
2022-08-25T06:04:07.831Z,59.69
2022-08-25T06:05:39.767Z,59.75
2022-08-25T06:07:11.509Z,59.57
2022-08-25T06:08:44.420Z,59.71
2022-08-25T06:10:16.488Z,59.50
2022-08-25T06:11:50.632Z,59.43
2022-08-25T06:13:28.809Z,59.57
2022-08-25T06:15:00.958Z,59.49
2022-08-25T06:16:33.865Z,59.59
2022-08-25T06:18:05.869Z,59.70
2022-08-25T06:19:39.679Z,59.72
2022-08-25T06:21:13.503Z,59.90
2022-08-25T06:22:45.439Z,59.97
2022-08-25T06:24:17.614Z,59.66
2022-08-25T06:25:50.483Z,59.87
2022-08-25T06:27:23.227Z,59.73
2022-08-25T06:28:55.360Z,59.50
2022-08-25T06:30:28.864Z,59.57
2022-08-25T06:32:01.845Z,59.66
2022-08-25T06:33:33.759Z,59.91
2022-08-25T06:35:06.073Z,59.71
2022-08-25T06:36:37.901Z,59.69
2022-08-25T06:38:09.815Z,59.58
2022-08-25T06:39:41.738Z,59.51
2022-08-25T06:41:14.242Z,59.39
2022-08-25T06:42:48.719Z,59.45
2022-08-25T06:44:21.763Z,59.63
2022-08-25T06:45:54.019Z,59.53
2022-08-25T06:47:25.703Z,59.40
2022-08-25T06:48:57.888Z,59.29
2022-08-25T06:50:30.018Z,59.63
2022-08-25T06:52:01.888Z,59.69
2022-08-25T06:53:34.028Z,60.03
2022-08-25T06:55:07.364Z,59.88
2022-08-25T06:56:42.790Z,59.67
2022-08-25T06:58:14.831Z,59.52
2022-08-25T06:59:46.963Z,59.41
2022-08-25T07:01:25.988Z,59.38
2022-08-25T07:02:58.775Z,59.25
2022-08-25T07:04:31.716Z,59.12
2022-08-25T07:06:04.395Z,58.66
2022-08-25T07:07:44.154Z,59.01
2022-08-25T07:09:16.567Z,58.83
2022-08-25T07:10:48.467Z,58.58
2022-08-25T07:12:22.037Z,58.15
2022-08-25T07:13:54.036Z,58.27
2022-08-25T07:15:25.707Z,58.35
2022-08-25T07:16:58.484Z,58.23
2022-08-25T07:18:31.410Z,58.04
2022-08-25T07:20:03.969Z,57.99
2022-08-25T07:21:36.768Z,57.88
2022-08-25T07:23:09.152Z,57.73
2022-08-25T07:24:41.490Z,57.44
2022-08-25T07:28:09.888Z,57.00
2022-08-25T07:29:42.833Z,56.92
2022-08-25T07:31:15.138Z,56.64
2022-08-25T07:32:47.386Z,56.74
2022-08-25T07:34:45.395Z,56.50
2022-08-25T07:36:24.394Z,56.63
2022-08-25T07:37:59.229Z,56.25
2022-08-25T07:39:31.657Z,56.30
2022-08-25T07:41:03.969Z,56.11
2022-08-25T07:42:36.591Z,56.16
2022-08-25T07:44:10.774Z,55.64
2022-08-25T07:45:49.037Z,55.94
2022-08-25T07:47:23.075Z,55.97
2022-08-25T07:48:55.263Z,55.70
2022-08-25T07:50:27.577Z,55.30
2022-08-25T07:52:04.014Z,55.46
2022-08-25T07:53:37.073Z,54.91
2022-08-25T07:55:11.114Z,54.79
2022-08-25T07:56:44.003Z,54.67
2022-08-25T07:58:16.169Z,54.43
2022-08-25T07:59:48.520Z,54.27
2022-08-25T08:01:24.210Z,54.22
2022-08-25T08:02:56.863Z,54.03
2022-08-25T08:04:29.200Z,53.65
2022-08-25T08:06:02.068Z,53.95
2022-08-25T08:07:43.281Z,53.42
2022-08-25T08:09:16.727Z,53.80
2022-08-25T08:11:05.390Z,53.89
2022-08-25T08:12:37.994Z,53.33
2022-08-25T08:14:10.847Z,53.48
2022-08-25T08:15:43.304Z,53.39
2022-08-25T08:17:15.726Z,53.14
2022-08-25T08:18:48.373Z,52.71
2022-08-25T08:20:23.524Z,52.06
2022-08-25T08:21:55.598Z,52.23
2022-08-25T08:23:30.217Z,52.54
2022-08-25T08:25:02.740Z,52.47
2022-08-25T08:26:57.411Z,51.89
2022-08-25T08:28:28.425Z,51.68
2022-08-25T08:30:00.821Z,51.98
2022-08-25T08:31:33.003Z,51.82
2022-08-25T08:33:12.040Z,51.15
2022-08-25T08:34:45.023Z,51.14
2022-08-25T08:36:18.453Z,50.82
2022-08-25T08:37:52.533Z,50.48
2022-08-25T08:39:28.966Z,50.33
2022-08-25T08:41:23.581Z,50.42
2022-08-25T08:43:18.139Z,50.52
2022-08-25T08:45:05.735Z,50.24
2022-08-25T08:46:48.690Z,49.88
2022-08-25T08:48:38.779Z,50.25
2022-08-25T08:50:33.484Z,49.95
2022-08-25T08:52:05.737Z,49.40
2022-08-25T08:53:52.924Z,49.37
2022-08-25T08:55:29.322Z,49.63
2022-08-25T08:57:20.454Z,49.56
2022-08-25T09:15:41.113Z,49.55
2022-08-25T09:19:29.548Z,49.08
2022-08-25T09:23:34.492Z,48.71
2022-08-25T09:25:39.570Z,48.81
2022-08-25T09:27:34.318Z,48.48
2022-08-25T09:29:17.107Z,48.53
2022-08-25T09:30:59.427Z,48.48
2022-08-25T09:32:48.890Z,47.98
2022-08-25T09:34:34.861Z,47.72
2022-08-25T09:36:09.001Z,48.04
2022-08-25T09:37:41.363Z,47.74
2022-08-25T09:39:14.463Z,47.49
2022-08-25T09:40:51.947Z,47.69
2022-08-25T09:42:29.997Z,47.19
2022-08-25T09:44:07.353Z,47.38
2022-08-25T09:45:47.262Z,47.09
2022-08-25T09:49:13.019Z,46.75
2022-08-25T09:50:48.925Z,46.49
2022-08-25T09:52:25.353Z,46.45
2022-08-25T09:54:33.979Z,46.33
2022-08-25T09:56:30.631Z,46.31
2022-08-25T09:58:03.200Z,46.02
2022-08-25T09:59:53.795Z,46.04
2022-08-25T10:01:34.791Z,45.74
2022-08-25T10:03:09.887Z,45.86
2022-08-25T10:04:51.522Z,45.77
2022-08-25T10:08:38.098Z,45.03
2022-08-25T10:10:26.800Z,45.04
2022-08-25T10:12:17.934Z,44.75
2022-08-25T10:13:54.562Z,45.03
2022-08-25T10:15:36.275Z,44.92
2022-08-25T10:17:27.656Z,44.59
2022-08-25T10:19:14.724Z,44.71
2022-08-25T10:21:01.169Z,44.73
2022-08-25T10:22:38.097Z,44.40
2022-08-25T10:24:12.858Z,44.53
2022-08-25T10:25:59.120Z,44.30
2022-08-25T10:27:36.501Z,44.53
2022-08-25T10:31:54.202Z,43.85
2022-08-25T10:33:52.343Z,44.02
2022-08-25T10:35:30.764Z,43.82
2022-08-25T10:37:11.981Z,43.63
2022-08-25T10:39:01.582Z,43.32
2022-08-25T10:40:53.356Z,43.61
2022-08-25T10:42:34.351Z,43.38
2022-08-25T10:44:32.358Z,43.12
2022-08-25T10:46:18.983Z,43.08
2022-08-25T10:47:54.730Z,42.74
2022-08-25T10:54:08.827Z,42.85
2022-08-25T10:56:07.086Z,42.96
2022-08-25T10:58:41.664Z,42.60
2022-08-25T11:00:17.486Z,42.54
2022-08-25T11:02:34.303Z,42.46
2022-08-25T11:08:58.169Z,42.50
2022-08-25T11:10:40.849Z,42.33
2022-08-25T11:14:36.342Z,42.06
2022-08-25T11:16:34.400Z,41.64
2022-08-25T11:20:27.016Z,41.46
2022-08-25T11:22:13.915Z,41.27
2022-08-25T11:24:23.541Z,41.47
2022-08-25T11:28:37.942Z,41.29
2022-08-25T11:30:11.533Z,41.16
2022-08-25T11:31:49.514Z,41.63
2022-08-25T11:33:25.520Z,41.44
2022-08-25T11:34:59.400Z,41.17
2022-08-25T11:36:32.886Z,41.02
2022-08-25T11:38:08.147Z,41.27
2022-08-25T11:40:08.799Z,41.04
2022-08-25T11:41:59.213Z,41.29
2022-08-25T11:43:35.543Z,41.08
2022-08-25T11:45:10.777Z,40.86
2022-08-25T11:46:50.064Z,40.86
2022-08-25T11:48:22.263Z,40.62
2022-08-25T11:49:54.604Z,40.60
2022-08-25T11:51:46.023Z,40.50
2022-08-25T11:53:35.323Z,40.56
2022-08-25T11:55:16.787Z,40.58
2022-08-25T11:56:57.965Z,40.35
2022-08-25T11:58:33.394Z,40.15
2022-08-25T12:00:19.936Z,40.11
2022-08-25T12:01:55.644Z,40.35
2022-08-25T12:03:39.517Z,40.25
2022-08-25T12:05:17.873Z,40.28
2022-08-25T12:07:07.109Z,40.21
2022-08-25T12:09:01.309Z,40.10
2022-08-25T12:10:55.285Z,40.11
2022-08-25T12:12:30.043Z,39.98
2022-08-25T12:14:29.101Z,39.97
2022-08-25T12:16:02.562Z,40.02
2022-08-25T12:17:49.278Z,39.93
2022-08-25T12:19:49.760Z,40.09
2022-08-25T12:21:33.505Z,39.94
2022-08-25T12:23:06.220Z,39.89
2022-08-25T12:24:48.170Z,39.74
2022-08-25T12:26:40.409Z,39.73
2022-08-25T12:28:27.681Z,39.64
2022-08-25T12:30:18.658Z,39.69
2022-08-25T12:32:04.575Z,39.39
2022-08-25T12:34:12.788Z,39.45
2022-08-25T12:35:55.811Z,39.25
2022-08-25T12:37:28.358Z,39.25
2022-08-25T12:39:19.818Z,39.38
2022-08-25T12:41:12.179Z,39.20
2022-08-25T12:42:45.056Z,39.21
2022-08-25T12:44:35.633Z,39.09
2022-08-25T12:46:30.022Z,39.08
2022-08-25T12:48:28.639Z,39.39
2022-08-25T12:50:20.461Z,39.30
2022-08-25T12:51:54.343Z,39.41
2022-08-25T12:53:32.529Z,39.42
2022-08-25T12:55:13.279Z,39.43
2022-08-25T12:56:47.639Z,39.50
2022-08-25T12:58:21.913Z,39.37
2022-08-25T13:00:01.941Z,39.19
2022-08-25T13:01:56.366Z,39.21
2022-08-25T13:05:28.998Z,39.06
2022-08-25T13:07:17.964Z,38.89
2022-08-25T13:09:16.892Z,38.80
2022-08-25T13:10:53.459Z,38.47
2022-08-25T13:12:27.755Z,38.21
2022-08-25T13:14:26.936Z,38.16
2022-08-25T13:16:06.827Z,38.30
2022-08-25T13:17:41.304Z,38.26
2022-08-25T13:19:17.837Z,38.74
2022-08-25T13:20:54.838Z,38.52
2022-08-25T13:22:26.702Z,38.62
2022-08-25T13:24:05.040Z,38.62
2022-08-25T13:25:47.115Z,38.62
2022-08-25T13:27:22.837Z,38.75
2022-08-25T13:28:59.469Z,38.48
2022-08-25T13:30:32.252Z,38.96
2022-08-25T13:32:09.674Z,38.73
2022-08-25T13:33:50.393Z,38.71
2022-08-25T13:35:32.800Z,38.86
2022-08-25T13:37:31.288Z,38.79
2022-08-25T13:39:13.978Z,38.77
2022-08-25T13:40:48.213Z,38.55
2022-08-25T13:42:20.388Z,38.54
2022-08-25T13:44:02.539Z,38.29
2022-08-25T13:45:44.898Z,38.13
2022-08-25T13:47:26.717Z,38.37
2022-08-25T13:49:05.407Z,38.55
2022-08-25T13:50:40.780Z,38.54
2022-08-25T13:52:29.323Z,38.47
2022-08-25T13:54:04.240Z,38.50
2022-08-25T13:55:50.853Z,38.55
2022-08-25T13:57:30.329Z,38.58
2022-08-25T13:59:04.264Z,38.12
2022-08-25T14:00:49.253Z,38.47
2022-08-25T14:02:44.124Z,38.61
2022-08-25T14:04:35.091Z,38.49
2022-08-25T14:06:19.309Z,38.54
2022-08-25T14:08:15.758Z,38.50
2022-08-25T14:09:52.981Z,38.04
2022-08-25T14:11:31.403Z,38.23
2022-08-25T14:13:09.704Z,38.06
2022-08-25T14:14:42.450Z,37.84
2022-08-25T14:16:21.936Z,38.04
2022-08-25T14:18:07.048Z,38.02
2022-08-25T14:19:44.791Z,37.79
2022-08-25T14:21:20.263Z,37.71
2022-08-25T14:22:53.024Z,37.46
2022-08-25T14:24:27.318Z,37.47
2022-08-25T14:25:59.135Z,37.57
2022-08-25T14:27:31.006Z,37.64
2022-08-25T14:29:08.172Z,37.65
2022-08-25T14:30:58.792Z,37.75
2022-08-25T14:32:30.700Z,37.46
2022-08-25T14:34:06.444Z,37.52
2022-08-25T14:35:38.376Z,37.41
2022-08-25T14:37:12.572Z,37.33
2022-08-25T14:38:48.100Z,37.31
2022-08-25T14:40:29.870Z,37.09
2022-08-25T14:42:06.042Z,37.11
2022-08-25T14:43:40.916Z,37.14
2022-08-25T14:45:13.019Z,37.20
2022-08-25T14:46:46.212Z,37.33
2022-08-25T14:48:20.595Z,36.94
2022-08-25T14:49:56.249Z,36.88
2022-08-25T14:51:30.941Z,36.98
2022-08-25T14:53:10.492Z,37.07
2022-08-25T14:54:45.650Z,36.75
2022-08-25T14:56:29.480Z,36.70
2022-08-25T14:58:25.899Z,36.19
2022-08-25T14:59:58.944Z,36.40
2022-08-25T15:01:33.673Z,36.03
2022-08-25T15:03:11.468Z,36.03
2022-08-25T15:04:49.175Z,35.91
2022-08-25T15:06:44.145Z,35.98
2022-08-25T15:08:34.794Z,36.02
2022-08-25T15:10:13.767Z,36.19
2022-08-25T15:11:50.936Z,36.11
2022-08-25T15:13:23.181Z,36.05
2022-08-25T15:14:56.122Z,35.61
2022-08-25T15:16:35.288Z,35.69
2022-08-25T15:18:20.344Z,35.64
2022-08-25T15:20:01.833Z,36.10
2022-08-25T15:21:38.646Z,35.87
2022-08-25T15:23:16.467Z,35.64
2022-08-25T15:24:51.269Z,35.78
2022-08-25T15:26:27.716Z,35.58
2022-08-25T15:28:00.289Z,35.63
2022-08-25T15:29:35.904Z,35.47
2022-08-25T15:31:08.946Z,35.65
2022-08-25T15:32:41.348Z,35.69
2022-08-25T15:34:14.906Z,35.85
2022-08-25T15:35:51.406Z,35.91
2022-08-25T15:37:27.065Z,35.99
2022-08-25T15:39:14.108Z,35.85
2022-08-25T15:40:58.175Z,35.92
2022-08-25T15:42:42.839Z,36.13
2022-08-25T15:44:29.633Z,35.99
2022-08-25T15:50:10.699Z,35.86
2022-08-25T15:51:42.593Z,36.04
2022-08-25T15:53:18.106Z,36.11
2022-08-25T15:55:02.554Z,36.22
2022-08-25T15:56:37.672Z,36.08
2022-08-25T15:58:30.371Z,36.23
2022-08-25T16:00:31.831Z,36.52
2022-08-25T16:02:04.491Z,36.29
2022-08-25T16:05:31.814Z,36.50
2022-08-25T16:07:07.042Z,36.63
2022-08-25T16:08:59.882Z,36.42
2022-08-25T16:12:56.841Z,36.81
2022-08-25T16:14:59.323Z,36.53
2022-08-25T16:16:36.485Z,36.71
2022-08-25T16:18:29.687Z,36.57
2022-08-25T16:28:06.748Z,37.16
2022-08-25T16:30:40.161Z,37.49
2022-08-25T16:45:45.644Z,37.78
2022-08-25T16:47:22.350Z,37.91
2022-08-25T16:49:03.036Z,38.07
2022-08-25T16:51:29.462Z,38.06
2022-08-25T16:55:27.702Z,37.83
2022-08-25T16:57:03.716Z,38.09
2022-08-25T16:58:36.010Z,38.05
2022-08-25T17:00:13.510Z,38.10
2022-08-25T17:01:46.159Z,38.26
2022-08-25T17:03:18.254Z,38.69
2022-08-25T17:04:50.180Z,38.56
2022-08-25T17:06:24.815Z,38.51
2022-08-25T17:08:15.831Z,38.58
2022-08-25T17:09:48.400Z,38.74
2022-08-25T17:11:29.881Z,38.71
2022-08-25T17:13:01.685Z,38.83
2022-08-25T17:14:33.849Z,38.85
2022-08-25T17:16:06.196Z,39.01
2022-08-25T17:17:38.353Z,39.07
2022-08-25T17:19:13.015Z,39.22
2022-08-25T17:20:45.478Z,39.27
2022-08-25T17:22:17.345Z,39.27
2022-08-25T17:23:49.385Z,39.06
2022-08-25T17:25:22.958Z,39.50
2022-08-25T17:26:59.186Z,39.66
2022-08-25T17:28:31.660Z,39.48
2022-08-25T17:30:04.221Z,39.44
2022-08-25T17:31:40.392Z,39.79
2022-08-25T17:33:14.304Z,39.74
2022-08-25T17:34:46.964Z,39.89
2022-08-25T17:36:19.131Z,39.82
2022-08-25T17:37:50.999Z,39.73
2022-08-25T17:39:25.442Z,39.70
2022-08-25T17:40:58.108Z,39.81
2022-08-25T17:42:32.213Z,39.74
2022-08-25T17:44:04.549Z,40.09
2022-08-25T17:45:36.688Z,39.74
2022-08-25T17:47:08.505Z,39.57
2022-08-25T17:48:43.825Z,39.82
2022-08-25T17:50:15.890Z,39.74
2022-08-25T17:51:48.601Z,39.78
2022-08-25T17:53:21.296Z,39.78
2022-08-25T17:54:54.777Z,39.84
2022-08-25T17:56:31.924Z,39.62
2022-08-25T17:58:03.766Z,39.81
2022-08-25T17:59:37.528Z,39.90
2022-08-25T18:01:14.862Z,39.91
2022-08-25T18:02:47.532Z,40.06
2022-08-25T18:04:19.482Z,40.24
2022-08-25T18:05:55.394Z,39.99
2022-08-25T18:07:27.478Z,40.19
2022-08-25T18:09:01.658Z,40.15
2022-08-25T18:10:35.094Z,40.38
2022-08-25T18:12:07.679Z,40.41
2022-08-25T18:13:40.201Z,40.37
2022-08-25T18:15:12.631Z,40.39
2022-08-25T18:16:46.466Z,40.76
2022-08-25T18:18:18.396Z,40.64
2022-08-25T18:19:51.241Z,40.43
2022-08-25T18:21:23.836Z,40.78
2022-08-25T18:22:58.604Z,40.89
2022-08-25T18:24:31.442Z,40.95
2022-08-25T18:26:04.417Z,41.28
2022-08-25T18:27:38.554Z,41.21
2022-08-25T18:29:13.732Z,41.47
2022-08-25T18:30:46.365Z,41.35
2022-08-25T18:32:19.500Z,41.12
2022-08-25T18:33:52.252Z,41.20
2022-08-25T18:35:26.711Z,41.21
2022-08-25T18:37:18.887Z,41.32
2022-08-25T18:39:09.300Z,41.54
2022-08-25T18:40:42.177Z,41.74
2022-08-25T18:42:14.488Z,42.04
2022-08-25T18:43:46.591Z,42.15
2022-08-25T18:45:18.946Z,42.23
2022-08-25T18:46:50.861Z,42.19
2022-08-25T18:48:26.825Z,42.13
2022-08-25T18:50:02.672Z,42.49
2022-08-25T18:51:36.669Z,42.26
2022-08-25T18:53:08.902Z,42.69
2022-08-25T18:54:41.451Z,42.55
2022-08-25T18:56:13.848Z,42.48
2022-08-25T18:57:46.824Z,42.92
2022-08-25T18:59:19.429Z,42.74
2022-08-25T19:00:51.380Z,43.03
2022-08-25T19:02:23.303Z,43.04
2022-08-25T19:03:55.760Z,42.99
2022-08-25T19:05:33.053Z,43.31
2022-08-25T19:07:05.206Z,43.19
2022-08-25T19:08:42.592Z,43.07
2022-08-25T19:10:14.588Z,43.34
2022-08-25T19:11:47.756Z,43.62
2022-08-25T19:13:22.408Z,43.69
2022-08-25T19:14:55.025Z,43.43
2022-08-25T19:16:34.802Z,43.82
2022-08-25T19:18:09.984Z,43.58
2022-08-25T19:19:43.057Z,43.71
2022-08-25T19:21:16.075Z,43.94
2022-08-25T19:22:47.970Z,43.61
2022-08-25T19:24:19.989Z,43.84
2022-08-25T19:25:51.844Z,43.55
2022-08-25T19:27:25.301Z,43.97
2022-08-25T19:29:17.786Z,43.79
2022-08-25T19:30:50.938Z,43.87
2022-08-25T19:32:22.787Z,43.98
2022-08-25T19:33:55.503Z,44.41
2022-08-25T19:35:32.016Z,44.34
2022-08-25T19:37:04.559Z,44.58
2022-08-25T19:38:36.337Z,44.64
2022-08-25T19:40:08.825Z,44.31
2022-08-25T19:41:43.846Z,44.58
2022-08-25T19:43:15.799Z,44.42
2022-08-25T19:44:49.307Z,44.54
2022-08-25T19:46:21.720Z,44.75
2022-08-25T19:47:53.739Z,44.83
2022-08-25T19:49:26.782Z,45.02
2022-08-25T19:50:58.736Z,45.15
2022-08-25T19:52:31.979Z,44.92
2022-08-25T19:54:04.572Z,45.01
2022-08-25T19:55:36.542Z,44.91
2022-08-25T19:57:10.570Z,44.98
2022-08-25T19:58:43.013Z,45.10
2022-08-25T20:00:16.703Z,45.07
2022-08-25T20:01:49.810Z,45.14
2022-08-25T20:03:21.778Z,45.18
2022-08-25T20:04:55.909Z,45.22
2022-08-25T20:06:28.179Z,45.46
2022-08-25T20:08:00.146Z,45.60
2022-08-25T20:09:39.584Z,45.79
2022-08-25T20:11:16.186Z,45.71
2022-08-25T20:12:48.718Z,45.71
2022-08-25T20:14:20.512Z,45.88
2022-08-25T20:15:53.299Z,45.93
2022-08-25T20:17:31.705Z,45.94
2022-08-25T20:19:04.139Z,45.87
2022-08-25T20:20:36.379Z,45.99
2022-08-25T20:22:08.324Z,46.05
2022-08-25T20:24:01.726Z,46.03
2022-08-25T20:25:36.898Z,45.96
2022-08-25T20:27:09.183Z,45.79
2022-08-25T20:28:42.267Z,46.07
2022-08-25T20:30:19.102Z,46.01
2022-08-25T20:31:50.880Z,45.98
2022-08-25T20:33:23.496Z,46.29
2022-08-25T20:34:55.899Z,46.13
2022-08-25T20:36:27.811Z,46.07
2022-08-25T20:38:00.166Z,45.94
2022-08-25T20:39:32.069Z,46.02
2022-08-25T20:41:04.389Z,46.10
2022-08-25T20:42:37.173Z,46.11
2022-08-25T20:44:08.925Z,45.88
2022-08-25T20:45:40.521Z,45.96
2022-08-25T20:47:12.203Z,46.18
2022-08-25T20:48:44.595Z,46.35
2022-08-25T20:50:16.911Z,46.33
2022-08-25T20:51:51.485Z,46.38
2022-08-25T20:53:25.198Z,46.50
2022-08-25T20:54:56.992Z,46.61
2022-08-25T20:56:30.632Z,46.52
2022-08-25T20:58:02.190Z,46.52
2022-08-25T20:59:33.761Z,46.64
2022-08-25T21:01:18.598Z,46.71
2022-08-25T21:02:55.115Z,46.86
2022-08-25T21:04:28.461Z,46.84
2022-08-25T21:06:00.620Z,47.07
2022-08-25T21:07:35.873Z,47.03
2022-08-25T21:09:14.265Z,47.20
2022-08-25T21:10:48.148Z,47.35
2022-08-25T21:12:20.057Z,47.34
2022-08-25T21:13:52.161Z,47.41
2022-08-25T21:15:24.303Z,47.21
2022-08-25T21:16:56.310Z,47.33
2022-08-25T21:18:31.568Z,47.17
2022-08-25T21:20:04.794Z,47.20
2022-08-25T21:21:38.072Z,47.14
2022-08-25T21:23:09.727Z,47.21
2022-08-25T21:24:41.542Z,47.42
2022-08-25T21:26:19.349Z,47.18
2022-08-25T21:27:51.282Z,47.32
2022-08-25T21:29:23.707Z,47.39
2022-08-25T21:30:56.825Z,47.63
2022-08-25T21:32:28.726Z,47.44
2022-08-25T21:34:00.377Z,47.69
2022-08-25T21:35:32.500Z,47.81
2022-08-25T21:37:05.854Z,47.81
2022-08-25T21:38:38.894Z,47.82
2022-08-25T21:40:12.093Z,47.74
2022-08-25T21:41:45.772Z,47.87
2022-08-25T21:43:18.610Z,47.87
2022-08-25T21:44:51.163Z,47.88
2022-08-25T21:46:24.387Z,48.00
2022-08-25T21:47:57.191Z,48.17
2022-08-25T21:49:29.483Z,48.06
2022-08-25T21:51:10.145Z,48.08
2022-08-25T21:52:42.300Z,48.13
2022-08-25T21:54:15.223Z,48.15
2022-08-25T21:55:47.413Z,47.98
2022-08-25T21:57:23.766Z,48.23
2022-08-25T21:58:55.562Z,48.23
2022-08-25T22:00:27.592Z,48.38